首页
METAR-TAF:

METAR-TAF

机场 :

尼诺伊·阿基诺国际机场

马尼拉, 菲律宾

纬度: 14-31N, 经度: 121-00E, 海拔: 14米

当前天气观测

该预报发布于1小时和12分钟前的10:00 UTC
风速8节,风向西转西南
温度 32°C
湿度 67%
气压 1007 hPa
能见度10公里或以上
少量云层高于2200英尺, 积雨云.
少量云层高于2300英尺

METAR: RPLL 211000Z 25008KT 9999 FEW022CB FEW023 32/25 Q1007 NOSIG RMK A2974 CB OHD

时间: 19:12 (11:12 UTC)

预报

该预报发布于6小时和12分钟前的05:00 UTC
预报有效从21日的 06点(UTC)到 22日的 12点(UTC)
风速6节,风向东转东南
能见度10公里或以上
少量云层高于2500英尺
短暂存在
从 21日的 06点(UTC)到 21日的 12点(UTC)
风速12节,风向东南
少量云层高于2500英尺
散云层高于10000英尺
短暂存在
从 21日的 12点(UTC)到 21日的 18点(UTC)
风速8节,风向东转东南

TAF: RPLL 210500Z 2106/2212 12006KT 9999 FEW025 TX36/2106Z TN27/2121Z TEMPO 2106/2112 13012KT FEW025 SCT100 TEMPO 2112/2118 11008KT

超过4000个机场的气象观测和天气预报(METAR&TAF报告)。

可查询的气象台以黄色和红色小点在地图上表示。

将鼠标移到小点上方,可查看气象台名称。

然后点击查看天气观测和预报。

如需切换地图:点击带黑十字的绿色按钮放大地图;点击带横线的绿色按钮缩小地图;或者点击绿色箭头查看邻近地区的地图。


METAR-TAF: